Map

Track Data

SID SEASON NUMBER BASIN SUBBASIN NAME ISO_TIME NATURE LAT LON WMO_WIND WMO_PRES WMO_AGENCY TRACK_TYPE DIST2LAND LANDFALL IFLAG USA_AGENCY USA_ATCF_ID USA_LAT USA_LON USA_RECORD USA_STATUS USA_WIND USA_PRES USA_SSHS USA_R34_NE USA_R34_SE USA_R34_SW USA_R34_NW USA_R50_NE USA_R50_SE USA_R50_SW USA_R50_NW USA_R64_NE USA_R64_SE USA_R64_SW USA_R64_NW USA_POCI USA_ROCI USA_RMW USA_EYE TOKYO_LAT TOKYO_LON TOKYO_GRADE TOKYO_WIND TOKYO_PRES TOKYO_R50_DIR TOKYO_R50_LONG TOKYO_R50_SHORT TOKYO_R30_DIR TOKYO_R30_LONG TOKYO_R30_SHORT TOKYO_LAND CMA_LAT CMA_LON CMA_CAT CMA_WIND CMA_PRES HKO_LAT HKO_LON HKO_CAT HKO_WIND HKO_PRES NEWDELHI_LAT NEWDELHI_LON NEWDELHI_GRADE NEWDELHI_WIND NEWDELHI_PRES NEWDELHI_CI NEWDELHI_DP NEWDELHI_POCI REUNION_LAT REUNION_LON REUNION_TYPE REUNION_WIND REUNION_PRES REUNION_TNUM REUNION_CI REUNION_RMW REUNION_R34_NE REUNION_R34_SE REUNION_R34_SW REUNION_R34_NW REUNION_R50_NE REUNION_R50_SE REUNION_R50_SW REUNION_R50_NW REUNION_R64_NE REUNION_R64_SE REUNION_R64_SW REUNION_R64_NW BOM_LAT BOM_LON BOM_TYPE BOM_WIND BOM_PRES BOM_TNUM BOM_CI BOM_RMW BOM_R34_NE BOM_R34_SE BOM_R34_SW BOM_R34_NW BOM_R50_NE BOM_R50_SE BOM_R50_SW BOM_R50_NW BOM_R64_NE BOM_R64_SE BOM_R64_SW BOM_R64_NW BOM_ROCI BOM_POCI BOM_EYE BOM_POS_METHOD BOM_PRES_METHOD NADI_LAT NADI_LON NADI_CAT NADI_WIND NADI_PRES WELLINGTON_LAT WELLINGTON_LON WELLINGTON_WIND WELLINGTON_PRES DS824_LAT DS824_LON DS824_STAGE DS824_WIND DS824_PRES TD9636_LAT TD9636_LON TD9636_STAGE TD9636_WIND TD9636_PRES TD9635_LAT TD9635_LON TD9635_WIND TD9635_PRES TD9635_ROCI NEUMANN_LAT NEUMANN_LON NEUMANN_CLASS NEUMANN_WIND NEUMANN_PRES MLC_LAT MLC_LON MLC_CLASS MLC_WIND MLC_PRES USA_GUST BOM_GUST BOM_GUST_PER REUNION_GUST REUNION_GUST_PER USA_SEAHGT USA_SEARAD_NE USA_SEARAD_SE USA_SEARAD_SW USA_SEARAD_NW STORM_SPEED STORM_DIR
1979245N20338 1979 82 NA NA NOT_NAMED 1979-09-01 12:00:00 TS 19.9000 -22.0000 20 hurdat_atl main 520 520 O_____________ hurdat_atl AL131979 19.9000 -22.0000 TD 20 -1 12 295
1979245N20338 1979 82 NA NA NOT_NAMED 1979-09-01 15:00:00 TS 20.1611 -22.5842 main 576 576 P_____________ AL131979 20.1611 -22.5842 TD 22 -1 11 298
1979245N20338 1979 82 NA NA NOT_NAMED 1979-09-01 18:00:00 TS 20.4000 -23.0000 25 hurdat_atl main 615 615 O_____________ hurdat_atl AL131979 20.4000 -23.0000 TD 25 -1 7 308
1979245N20338 1979 82 NA NA NOT_NAMED 1979-09-01 21:00:00 TS 20.6058 -23.1959 main 634 634 P_____________ AL131979 20.6058 -23.1959 TD 25 -1 7 306
1979245N20338 1979 82 NA NA NOT_NAMED 1979-09-02 00:00:00 TS 20.8000 -23.6000 25 hurdat_atl main 675 675 O_____________ hurdat_atl AL131979 20.8000 -23.6000 TD 25 -1 15 284
1979245N20338 1979 82 NA NA NOT_NAMED 1979-09-02 03:00:00 TS 20.9728 -24.7475 main 789 789 P_____________ AL131979 20.9728 -24.7475 TD 27 -1 23 280
1979245N20338 1979 82 NA NA NOT_NAMED 1979-09-02 06:00:00 TS 21.2000 -26.0000 30 hurdat_atl main 924 924 O_____________ hurdat_atl AL131979 21.2000 -26.0000 TD 30 -1 20 289
1979245N20338 1979 82 NA NA NOT_NAMED 1979-09-02 09:00:00 TS 21.6134 -26.7247 main 998 998 P_____________ AL131979 21.6134 -26.7247 TD 30 -1 15 304
1979245N20338 1979 82 NA NA NOT_NAMED 1979-09-02 12:00:00 TS 22.0000 -27.3000 30 hurdat_atl main 1062 1062 O_____________ hurdat_atl AL131979 22.0000 -27.3000 TD 30 -1 13 292
1979245N20338 1979 82 NA NA NOT_NAMED 1979-09-02 15:00:00 TS 22.0999 -28.0013 main 1134 1134 P_____________ AL131979 22.0999 -28.0013 TD 30 -1 13 279
1979245N20338 1979 82 NA NA NOT_NAMED 1979-09-02 18:00:00 TS 22.2000 -28.7000 30 hurdat_atl main 1206 1206 O_____________ hurdat_atl AL131979 22.2000 -28.7000 TD 30 -1 13 292
1979245N20338 1979 82 NA NA NOT_NAMED 1979-09-02 21:00:00 TS 22.5916 -29.3195 main 1268 1268 P_____________ AL131979 22.5916 -29.3195 TD 30 -1 14 304
1979245N20338 1979 82 NA NA NOT_NAMED 1979-09-03 00:00:00 TS 23.0000 -30.0000 30 hurdat_atl main 1342 1342 O_____________ hurdat_atl AL131979 23.0000 -30.0000 TD 30 -1 16 292
1979245N20338 1979 82 NA NA NOT_NAMED 1979-09-03 03:00:00 TS 23.1655 -30.8935 main 1435 1435 P_____________ AL131979 23.1655 -30.8935 TD 30 -1 17 280
1979245N20338 1979 82 NA NA NOT_NAMED 1979-09-03 06:00:00 TS 23.3000 -31.8000 30 hurdat_atl main 1527 1527 O_____________ hurdat_atl AL131979 23.3000 -31.8000 TD 30 -1 15 284
1979245N20338 1979 82 NA NA NOT_NAMED 1979-09-03 09:00:00 TS 23.5464 -32.5083 main 1600 1600 P_____________ AL131979 23.5464 -32.5083 TD 30 -1 14 295
1979245N20338 1979 82 NA NA NOT_NAMED 1979-09-03 12:00:00 TS 23.9000 -33.2000 30 hurdat_atl main 1674 1674 O_____________ hurdat_atl AL131979 23.9000 -33.2000 TD 30 -1 16 300
1979245N20338 1979 82 NA NA NOT_NAMED 1979-09-03 15:00:00 TS 24.3625 -34.0350 main 1760 1760 P_____________ AL131979 24.3625 -34.0350 TD 30 -1 18 303
1979245N20338 1979 82 NA NA NOT_NAMED 1979-09-03 18:00:00 TS 24.9000 -34.9000 30 hurdat_atl main 1834 1834 O_____________ hurdat_atl AL131979 24.9000 -34.9000 TD 30 -1 19 305
1979245N20338 1979 82 NA NA NOT_NAMED 1979-09-03 21:00:00 TS 25.4348 -35.7305 main 1897 1897 P_____________ AL131979 25.4348 -35.7305 TD 30 -1 18 307
1979245N20338 1979 82 NA NA NOT_NAMED 1979-09-04 00:00:00 TS 26.0000 -36.5000 30 hurdat_atl main 1961 1961 O_____________ hurdat_atl AL131979 26.0000 -36.5000 TD 30 -1 17 311
1979245N20338 1979 82 NA NA NOT_NAMED 1979-09-04 03:00:00 TS 26.5695 -37.1811 main 2017 2017 P_____________ AL131979 26.5695 -37.1811 TD 30 -1 17 316
1979245N20338 1979 82 NA NA NOT_NAMED 1979-09-04 06:00:00 TS 27.2000 -37.8000 30 hurdat_atl main 2065 2065 O_____________ hurdat_atl AL131979 27.2000 -37.8000 TD 30 -1 18 320
1979245N20338 1979 82 NA NA NOT_NAMED 1979-09-04 09:00:00 TS 27.9352 -38.4594 main 2123 2122 P_____________ AL131979 27.9352 -38.4594 TD 30 -1 18 325
1979245N20338 1979 82 NA NA NOT_NAMED 1979-09-04 12:00:00 TS 28.7000 -39.0000 30 hurdat_atl main 2164 2163 O_____________ hurdat_atl AL131979 28.7000 -39.0000 TD 30 -1 17 333
1979245N20338 1979 82 NA NA NOT_NAMED 1979-09-04 15:00:00 TS 29.4071 -39.3187 main 2188 2182 P_____________ AL131979 29.4071 -39.3187 TD 30 -1 15 343
1979245N20338 1979 82 NA NA NOT_NAMED 1979-09-04 18:00:00 TS 30.1000 -39.5000 30 hurdat_atl main 2182 2104 O_____________ hurdat_atl AL131979 30.1000 -39.5000 TD 30 -1 14 346
1979245N20338 1979 82 NA NA NOT_NAMED 1979-09-04 21:00:00 TS 30.8000 -39.7095 main 2104 2032 P_____________ AL131979 30.8000 -39.7095 TD 27 -1 14 350
1979245N20338 1979 82 NA NA NOT_NAMED 1979-09-05 00:00:00 TS 31.5000 -39.8000 25 hurdat_atl main 2032 1970 O_____________ hurdat_atl AL131979 31.5000 -39.8000 TD 25 -1 14 359
1979245N20338 1979 82 NA NA NOT_NAMED 1979-09-05 03:00:00 TS 32.2224 -39.7106 main 1970 1914 P_____________ AL131979 32.2224 -39.7106 TD 25 -1 14 10
1979245N20338 1979 82 NA NA NOT_NAMED 1979-09-05 06:00:00 TS 32.9000 -39.5000 25 hurdat_atl main 1914 1878 O_____________ hurdat_atl AL131979 32.9000 -39.5000 TD 25 -1 13 17
1979245N20338 1979 82 NA NA NOT_NAMED 1979-09-05 09:00:00 TS 33.4575 -39.2647 main 1869 1839 P_____________ AL131979 33.4575 -39.2647 TD 25 -1 12 21
1979245N20338 1979 82 NA NA NOT_NAMED 1979-09-05 12:00:00 TS 34.0000 -39.0000 25 hurdat_atl main 1839 1797 O_____________ hurdat_atl AL131979 34.0000 -39.0000 TD 25 -1 12 20
1979245N20338 1979 82 NA NA NOT_NAMED 1979-09-05 15:00:00 TS 34.6274 -38.7570 main 1797 1753 P_____________ AL131979 34.6274 -38.7570 TD 25 -1 14 18
1979245N20338 1979 82 NA NA NOT_NAMED 1979-09-05 18:00:00 TS 35.3000 -38.5000 25 hurdat_atl main 1753 1712 O_____________ hurdat_atl AL131979 35.3000 -38.5000 TD 25 -1 15 17
1979245N20338 1979 82 NA NA NOT_NAMED 1979-09-05 21:00:00 TS 36.0148 -38.2295 main 1712 1673 P_____________ AL131979 36.0148 -38.2295 TD 25 -1 15 19
1979245N20338 1979 82 NA NA NOT_NAMED 1979-09-06 00:00:00 TS 36.7000 -37.9000 25 hurdat_atl main 1673 1652 O_____________ hurdat_atl AL131979 36.7000 -37.9000 TD 25 -1 14 26
1979245N20338 1979 82 NA NA NOT_NAMED 1979-09-06 03:00:00 TS 37.2650 -37.4792 main 1651 1644 P_____________ AL131979 37.2650 -37.4792 TD 22 -1 13 33
1979245N20338 1979 82 NA NA NOT_NAMED 1979-09-06 06:00:00 TS 37.8000 -37.0000 20 hurdat_atl main 1644 1633 O_____________ hurdat_atl AL131979 37.8000 -37.0000 TD 20 -1 14 35
1979245N20338 1979 82 NA NA NOT_NAMED 1979-09-06 09:00:00 TS 38.3829 -36.5044 main 1632 1624 P_____________ AL131979 38.3829 -36.5044 TD 20 -1 14 33
1979245N20338 1979 82 NA NA NOT_NAMED 1979-09-06 12:00:00 TS 39.0000 -36.0000 20 hurdat_atl main 1624 O_____________ hurdat_atl AL131979 39.0000 -36.0000 TD 20 -1 15 32

About IBTrACS Database

This database is a web-friendly format of International Best Track Archive for Climate Stewardship (IBTrACS), a global best track data archive curated by NOAA dating back to 1842.

Updated: 2021-12-03